Nearby METAR Reports

 

KBFI - Seattle/Boeing, Washington, USA
Distance from station: S 10mi, 16km
Updated: Tue, 07-Apr-2020 8:53am PDT
Overcast
Overcast
 Wind from SSE
Wind: SSE 8 mph , 13 km/h
Temperature: 45°F , 7°C
Wind Chill: 41°F , 5°C
Dew Point: 37°F , 3°C
Humidity: 76%
Barometer: 30.24 inHg , 1024 hPa
Clouds: Overcast
Visibility: 10 miles , 16 km
Cloud details: Overcast 2600 ft
2020/04/07 15:53 KBFI 071553Z 16007KT 10SM OVC026 07/03 A3024 RMK AO2 SLP240 T00720028
KRNT - Renton, Washington, USA
Distance from station: SSE 14mi, 23km
Updated: Tue, 07-Apr-2020 8:53am PDT
Overcast
Overcast
 Wind from SE
Wind: SE 5 mph , 7 km/h
Temperature: 45°F , 7°C
Wind Chill: 42°F , 6°C
Dew Point: 36°F , 2°C
Humidity: 71%
Barometer: 30.24 inHg , 1024 hPa
Clouds: Overcast
Visibility: 10 miles , 16 km
Cloud details: Overcast 2800 ft
2020/04/07 15:53 KRNT 071553Z 14004KT 10SM OVC028 07/02 A3024 RMK AO2 SLP244 T00720022
 
KPAE - Everett, Washington, USA
Distance from station: N 15mi, 25km
Updated: Tue, 07-Apr-2020 8:53am PDT
Overcast
Overcast
 Wind from S
Wind: S 3 mph , 6 km/h
Temperature: 43°F , 6°C
Dew Point: 37°F , 3°C
Humidity: 81%
Barometer: 30.23 inHg , 1023.7 hPa
Clouds: Overcast
Visibility: 10 miles , 16 km
Cloud details: Mostly cloudy 2200 ft
Overcast 3700 ft
2020/04/07 15:53 KPAE 071553Z 18003KT 10SM BKN022 OVC037 06/03 A3023 RMK AO2 SLP238 T00610033
KSEA - Seattle/Metro, Washington, USA
Distance from station: S 17mi, 27km
Updated: Tue, 07-Apr-2020 8:53am PDT
Mostly cloudy
Mostly cloudy
 Wind from SSE
Wind: SSE 8 mph , 13 km/h
Temperature: 45°F , 7°C
Wind Chill: 41°F , 5°C
Dew Point: 37°F , 3°C
Humidity: 76%
Barometer: 30.23 inHg , 1023.7 hPa
Clouds: Mostly cloudy
Visibility: 10 miles , 16 km
Cloud details: Few Clouds 1500 ft
Mostly cloudy 2300 ft
Mostly cloudy 25000 ft
2020/04/07 15:53 KSEA 071553Z 15007KT 10SM FEW015 BKN023 BKN250 07/03 A3023 RMK AO2 SLP243 T00670028
 
KPWT - Bremerton Ntnl, Washington, USA
Distance from station: SW 24mi, 39km
Updated: Tue, 07-Apr-2020 8:56am PDT
Overcast
Overcast
 Wind from calm
Wind: Calm
Temperature: 43°F , 6°C
Dew Point: 39°F , 4°C
Humidity: 87%
Barometer: 30.23 inHg , 1023.7 hPa
Clouds: Overcast
Visibility: 10 miles , 16 km
Cloud details: Overcast 2000 ft
2020/04/07 15:56 KPWT 071556Z AUTO 00000KT 10SM OVC020 06/04 A3023 RMK AO2 SLP242 T00610039
KTIW - Tacoma, Washington, USA
Distance from station: SSW 32mi, 52km
Updated: Tue, 07-Apr-2020 8:53am PDT
Overcast
Overcast
 Wind from calm
Wind: Calm
Temperature: 43°F , 6°C
Dew Point: 37°F , 3°C
Humidity: 81%
Barometer: 30.22 inHg , 1023.4 hPa
Clouds: Overcast
Visibility: 10 miles , 16 km
Cloud details: Overcast 1900 ft
2020/04/07 15:53 KTIW 071553Z 00000KT 10SM OVC019 06/03 A3022 RMK AO2 SLP237 T00560033
 
KAWO - Arlington Muni, Washington, USA
Distance from station: N 33mi, 54km
Updated: Tue, 07-Apr-2020 8:56am PDT
Overcast
Overcast
 Wind from calm
Wind: Calm
Temperature: 43°F , 6°C
Dew Point: 39°F , 4°C
Humidity: 87%
Barometer: 30.24 inHg , 1024 hPa
Clouds: Overcast
Visibility: 10 miles , 16 km
Cloud details: Partly cloudy 2200 ft
Mostly cloudy 3300 ft
Overcast 4200 ft
2020/04/07 15:56 KAWO 071556Z AUTO 00000KT 10SM SCT022 BKN033 OVC042 06/04 A3024 RMK AO2 SLP243 T00610039
KTCM - Tacoma/Mc Chord, Washington, USA
Distance from station: S 41mi, 65km
Updated: Tue, 07-Apr-2020 8:23am PDT
Overcast
Overcast
 Wind from calm
Wind: Calm
Temperature: 41°F , 5°C
Dew Point: 36°F , 2°C
Humidity: 81%
Barometer: 30.23 inHg , 1023.7 hPa
Clouds: Overcast
Visibility: 10 miles , 16 km
Cloud details: Overcast 1900 ft
2020/04/07 15:23 KTCM 071523Z AUTO 00000KT 10SM OVC019 05/02 A3023 RMK AO2 SLP242 $
 
KPLU - Puyallup/Thun, Washington, USA
Distance from station: S 41mi, 66km
Updated: Tue, 07-Apr-2020 8:55am PDT
Overcast
Overcast
 Wind from calm
Wind: Calm
Temperature: 43°F , 6°C
Dew Point: 37°F , 3°C
Humidity: 81%
Barometer: 30.23 inHg , 1023.7 hPa
Clouds: Overcast
Visibility: 10 miles , 16 km
Cloud details: Overcast 2200 ft
2020/04/07 15:55 KPLU 071555Z AUTO 00000KT 10SM OVC022 06/03 A3023 RMK AO2
KGRF - Fort Lewis/Gray, Washington, USA
Distance from station: SSW 45mi, 72km
Updated: Tue, 07-Apr-2020 7:58am PDT
Overcast
Overcast
 Wind from calm
Wind: Calm
Temperature: 37°F , 3°C
Dew Point: 37°F , 3°C
Humidity: 100%
Barometer: 30.21 inHg , 1023 hPa
Clouds: Overcast
Visibility: 10 miles , 16 km
Cloud details: Overcast 2200 ft
2020/04/07 14:58 KGRF 071458Z AUTO 00000KT 10SM OVC022 03/03 A3021 RMK AO2 SLP235 T00320032 52017 $
 
KNUW - Whidbey Is. Nas, Washington, USA
Distance from station: NNW 48mi, 77km
Updated: Tue, 07-Apr-2020 8:56am PDT
Overcast
Overcast
 Wind from SW
Wind: SW 9 mph , 15 km/h
Temperature: 52°F , 11°C
Dew Point: 39°F , 4°C
Humidity: 62%
Barometer: 30.26 inHg , 1024.7 hPa
Clouds: Overcast
Visibility: 10 miles , 16 km
Cloud details: Partly cloudy 2500 ft
Mostly cloudy 5000 ft
Overcast 25000 ft
2020/04/07 15:56 KNUW 071556Z 23008KT 10SM SCT025 BKN050 OVC250 11/04 A3026 RMK AO2 SLP245 T01060044
KSHN - Shelton, Washington, USA
Distance from station: SW 50mi, 80km
Updated: Tue, 07-Apr-2020 8:53am PDT
Overcast
Overcast
 Wind from calm
Wind: Calm
Temperature: 39°F , 4°C
Dew Point: 39°F , 4°C
Humidity: 100%
Barometer: 30.21 inHg , 1023 hPa
Clouds: Overcast
Visibility: 10 miles , 16 km
Cloud details: Partly cloudy 1100 ft
Overcast 1900 ft
2020/04/07 15:53 KSHN 071553Z AUTO 00000KT 10SM SCT011 OVC019 04/04 A3021 RMK AO2 SLP233 T00440044